Time;durP1;ratioP1;P1;durP2;ratioP2;P2;SDS_P1;SDS_P2;PMS_P1;PMS_P2;Temp;Humidity;BMP_temperature;BMP_pressure;BME280_temperature;BME280_humidity;BME280_pressure;Samples;Min_cycle;Max_cycle;Signal;HPM_P1;HPM_P2
2024/01/18 00:00:09;;;;;;;4.05;2.80;;;;;;;;;;6357334;22;20010;-85
2024/01/18 00:02:35;;;;;;;3.80;2.67;;;;;;;;;;6386573;22;19995;-82
2024/01/18 00:05:02;;;;;;;5.28;2.65;;;;;;;;;;6358851;22;20008;-90
2024/01/18 00:07:28;;;;;;;3.97;2.55;;;;;;;;;;6357403;22;20062;-83
2024/01/18 00:09:54;;;;;;;5.93;3.00;;;;;;;;;;6354945;22;20006;-83
2024/01/18 00:12:20;;;;;;;3.92;2.45;;;;;;;;;;6355550;22;20002;-82
2024/01/18 00:14:46;;;;;;;3.97;2.42;;;;;;;;;;6357080;22;19998;-83
2024/01/18 00:17:12;;;;;;;4.32;3.05;;;;;;;;;;6358150;22;20411;-83
2024/01/18 00:19:38;;;;;;;5.82;2.90;;;;;;;;;;6356135;22;20002;-81
2024/01/18 00:22:04;;;;;;;4.75;2.90;;;;;;;;;;6356463;22;20041;-83
2024/01/18 00:24:30;;;;;;;6.53;3.13;;;;;;;;;;6380723;22;20002;-90
2024/01/18 00:27:19;;;;;;;7.03;3.67;;;;;;;;;;6354124;22;20006;-80
2024/01/18 00:29:45;;;;;;;6.47;3.80;;;;;;;;;;6338013;22;19999;-81
2024/01/18 00:32:11;;;;;;;10.20;3.85;;;;;;;;;;6380346;22;20433;-88
2024/01/18 00:34:37;;;;;;;9.45;4.00;;;;;;;;;;6351650;22;20006;-80
2024/01/18 00:37:03;;;;;;;8.10;3.85;;;;;;;;;;6380767;22;20197;-80
2024/01/18 00:39:37;;;;;;;11.40;4.95;;;;;;;;;;6379881;22;20025;-81
2024/01/18 00:42:05;;;;;;;8.40;4.10;;;;;;;;;;6379017;22;20006;-90
2024/01/18 00:44:31;;;;;;;10.60;4.18;;;;;;;;;;6354216;22;20013;-81
2024/01/18 00:46:58;;;;;;;9.88;4.07;;;;;;;;;;6383188;22;20026;-80
2024/01/18 00:49:24;;;;;;;11.40;4.50;;;;;;;;;;6385205;22;20002;-87
2024/01/18 00:51:50;;;;;;;10.38;4.35;;;;;;;;;;6357673;22;20009;-82
2024/01/18 00:54:16;;;;;;;9.63;5.03;;;;;;;;;;6359382;22;20089;-82
2024/01/18 00:56:42;;;;;;;10.57;5.13;;;;;;;;;;6359933;22;20539;-82
2024/01/18 00:59:08;;;;;;;8.50;4.53;;;;;;;;;;6392048;22;20059;-82
2024/01/18 01:01:34;;;;;;;11.65;4.85;;;;;;;;;;6365630;22;20045;-88
2024/01/18 01:04:02;;;;;;;12.27;5.35;;;;;;;;;;6367327;22;20015;-84
2024/01/18 01:06:28;;;;;;;9.90;5.05;;;;;;;;;;6362490;22;20066;-81
2024/01/18 01:08:54;;;;;;;11.20;4.75;;;;;;;;;;6390824;22;20058;-90
2024/01/18 01:11:20;;;;;;;13.18;5.07;;;;;;;;;;6358370;22;19991;-81
2024/01/18 01:13:48;;;;;;;9.68;4.35;;;5.80;99.90;;;;;;6387935;22;19998;-85
2024/01/18 01:16:14;;;;;;;9.57;4.97;;;;;;;;;;6332811;22;20012;-80
2024/01/18 01:18:42;;;;;;;9.52;4.80;;;;;;;;;;6386727;22;19995;-80
2024/01/18 01:21:08;;;;;;;11.73;5.03;;;;;;;;;;6359160;22;19978;-90
2024/01/18 01:23:40;;;;;;;9.55;5.25;;;;;;;;;;6394719;22;19999;-88
2024/01/18 01:26:08;;;;;;;10.88;4.60;;;;;;;;;;6395051;22;19983;-86
2024/01/18 01:28:34;;;;;;;13.05;5.28;;;;;;;;;;6395079;22;19998;-90
2024/01/18 01:31:00;;;;;;;10.50;4.93;;;;;;;;;;6395191;22;20001;-85
2024/01/18 01:33:28;;;;;;;12.43;5.47;;;;;;;;;;6363650;22;20028;-83
2024/01/18 01:35:54;;;;;;;10.88;5.80;;;;;;;;;;6387242;22;20066;-82
2024/01/18 01:38:20;;;;;;;13.63;6.10;;;;;;;;;;6385268;22;20006;-86
2024/01/18 01:40:46;;;;;;;13.32;5.72;;;;;;;;;;6383061;22;20054;-85
2024/01/18 01:43:13;;;;;;;13.95;6.18;;;;;;;;;;6356060;22;20013;-80
2024/01/18 01:45:39;;;;;;;12.43;6.93;;;;;;;;;;6382438;22;19994;-83
2024/01/18 01:48:07;;;;;;;15.88;7.25;;;5.30;99.90;;;;;;6386651;22;20018;-86
2024/01/18 01:50:33;;;;;;;15.15;6.93;;;;;;;;;;6393154;22;20460;-81
2024/01/18 01:52:59;;;;;;;19.08;7.03;;;;;;;;;;6392895;22;20002;-80
2024/01/18 01:55:25;;;;;;;19.25;7.90;;;;;;;;;;6365248;22;20073;-84
2024/01/18 01:57:51;;;;;;;17.77;7.85;;;;;;;;;;6389797;22;20005;-82
2024/01/18 02:00:17;;;;;;;16.23;7.03;;;;;;;;;;6388776;22;20054;-81
2024/01/18 02:02:45;;;;;;;16.73;7.80;;;;;;;;;;6386552;22;20006;-80
2024/01/18 02:05:12;;;;;;;19.13;7.65;;;;;;;;;;6359783;22;20022;-82
2024/01/18 02:07:38;;;;;;;17.20;7.53;;;;;;;;;;6388354;22;20050;-81
2024/01/18 02:10:05;;;;;;;15.73;7.40;;;;;;;;;;6364628;22;20032;-81
2024/01/18 02:12:32;;;;;;;14.35;7.38;;;;;;;;;;6366864;22;19998;-83
2024/01/18 02:14:58;;;;;;;14.80;6.90;;;;;;;;;;6365576;22;20024;-85
2024/01/18 02:17:24;;;;;;;13.40;7.10;;;;;;;;;;6365918;22;20007;-84
2024/01/18 02:19:50;;;;;;;15.70;6.80;;;;;;;;;;6393627;22;19986;-84
2024/01/18 02:22:17;;;;;;;14.15;6.60;;;;;;;;;;6358508;22;20025;-85
2024/01/18 02:24:55;;;;;;;15.35;7.80;;;5.20;99.90;;;;;;6353927;22;20010;-83
2024/01/18 02:27:21;;;;;;;16.23;7.13;;;;;;;;;;6358554;22;20074;-82
2024/01/18 02:29:48;;;;;;;17.65;7.60;;;;;;;;;;6358881;22;19999;-80
2024/01/18 02:32:14;;;;;;;12.90;6.60;;;;;;;;;;6358233;22;20701;-81
2024/01/18 02:34:40;;;;;;;14.57;6.75;;;;;;;;;;6386598;22;19999;-83
2024/01/18 02:37:07;;;;;;;16.83;6.93;;;;;;;;;;6357958;22;20002;-81
2024/01/18 02:39:33;;;;;;;14.70;7.00;;;;;;;;;;6386454;22;20010;-82
2024/01/18 02:41:59;;;;;;;11.45;6.57;;;4.90;99.90;;;;;;6359052;22;20002;-84
2024/01/18 02:44:26;;;;;;;9.45;4.80;;;;;;;;;;6383504;22;20002;-83
2024/01/18 02:46:52;;;;;;;8.48;4.20;;;;;;;;;;6356517;22;19986;-81
2024/01/18 02:49:18;;;;;;;12.05;5.15;;;;;;;;;;6385816;22;19998;-84
2024/01/18 02:51:44;;;;;;;8.10;4.18;;;;;;;;;;6385449;22;20024;-85
2024/01/18 02:54:10;;;;;;;6.78;4.00;;;;;;;;;;6388097;22;20431;-84
2024/01/18 02:56:40;;;;;;;5.30;2.83;;;;;;;;;;6392917;22;20006;-81
2024/01/18 02:59:06;;;;;;;3.15;2.17;;;;;;;;;;6381335;22;20016;-82
2024/01/18 03:01:32;;;;;;;3.33;2.15;;;;;;;;;;6354420;22;20006;-81
2024/01/18 03:03:58;;;;;;;2.65;1.67;;;;;;;;;;6355860;22;20062;-81
2024/01/18 03:06:24;;;;;;;2.45;1.60;;;;;;;;;;6355014;22;20021;-81
2024/01/18 03:08:50;;;;;;;2.33;1.80;;;;;;;;;;6383109;22;20058;-85
2024/01/18 03:11:16;;;;;;;2.13;1.80;;;;;;;;;;6355619;22;20002;-82
2024/01/18 03:13:42;;;;;;;2.92;1.90;;;;;;;;;;6383004;22;20003;-81
2024/01/18 03:16:08;;;;;;;2.30;1.80;;;;;;;;;;6356267;22;20081;-81
2024/01/18 03:18:35;;;;;;;2.25;1.70;;;4.50;99.90;;;;;;6385276;22;20010;-84
2024/01/18 03:21:05;;;;;;;2.72;1.80;;;4.50;99.90;;;;;;6384942;22;20056;-82
2024/01/18 03:23:31;;;;;;;2.65;1.90;;;;;;;;;;6359435;22;20082;-82
2024/01/18 03:25:57;;;;;;;3.65;2.00;;;;;;;;;;6385564;22;19990;-81
2024/01/18 03:28:23;;;;;;;2.15;1.77;;;;;;;;;;6359033;22;20029;-87
2024/01/18 03:30:49;;;;;;;2.38;1.70;;;;;;;;;;6386850;22;19998;-88
2024/01/18 03:33:15;;;;;;;3.58;1.67;;;;;;;;;;6355966;22;20106;-84
2024/01/18 03:35:42;;;;;;;1.90;1.50;;;;;;;;;;6380717;22;20023;-81
2024/01/18 03:38:08;;;;;;;2.30;1.65;;;;;;;;;;6354226;22;20002;-89
2024/01/18 03:40:36;;;;;;;3.22;1.92;;;3.90;99.90;;;;;;6381404;22;20006;-83
2024/01/18 03:43:02;;;;;;;2.65;1.90;;;;;;;;;;6380788;22;19998;-85
2024/01/18 03:45:28;;;;;;;2.45;1.73;;;;;;;;;;6350066;22;20457;-82
2024/01/18 03:47:54;;;;;;;3.40;1.70;;;;;;;;;;6348263;22;20006;-89
2024/01/18 03:50:20;;;;;;;2.72;1.60;;;;;;;;;;6382453;22;20009;-82
2024/01/18 03:52:46;;;;;;;3.20;1.85;;;;;;;;;;6382671;22;20012;-87
2024/01/18 03:55:12;;;;;;;3.05;1.90;;;;;;;;;;6356967;22;20002;-82
2024/01/18 03:57:39;;;;;;;2.10;1.60;;;;;;;;;;6356000;22;20002;-84
2024/01/18 04:00:06;;;;;;;1.92;1.23;;;;;;;;;;6384156;22;20022;-83
2024/01/18 04:02:32;;;;;;;2.70;1.40;;;;;;;;;;6383668;22;19998;-82
2024/01/18 04:04:58;;;;;;;2.13;1.52;;;;;;;;;;6383459;22;19999;-87
2024/01/18 04:07:24;;;;;;;2.38;1.50;;;;;;;;;;6354910;22;20051;-85
2024/01/18 04:09:50;;;;;;;2.35;1.30;;;;;;;;;;6356191;22;20002;-86
2024/01/18 04:12:16;;;;;;;1.80;1.40;;;3.30;99.90;;;;;;6355968;22;20013;-81
2024/01/18 04:14:43;;;;;;;1.98;1.40;;;;;;;;;;6385194;22;20548;-89
2024/01/18 04:17:15;;;;;;;2.38;1.55;;;;;;;;;;6385016;22;20024;-86
2024/01/18 04:19:41;;;;;;;2.13;1.50;;;;;;;;;;6333189;22;20031;-83
2024/01/18 04:22:07;;;;;;;2.13;1.55;;;;;;;;;;6359193;22;20053;-87
2024/01/18 04:24:33;;;;;;;2.20;1.50;;;;;;;;;;6362336;22;20013;-84
2024/01/18 04:27:00;;;;;;;2.85;1.70;;;;;;;;;;6360681;22;20021;-84
2024/01/18 04:29:27;;;;;;;2.70;2.05;;;3.50;99.90;;;;;;6358796;22;20053;-84
2024/01/18 04:31:53;;;;;;;2.58;1.85;;;;;;;;;;6359713;22;20456;-81
2024/01/18 04:34:19;;;;;;;2.83;1.92;;;;;;;;;;6384379;22;20009;-86
2024/01/18 04:36:45;;;;;;;2.95;1.90;;;;;;;;;;6359664;22;20002;-85
2024/01/18 04:39:11;;;;;;;3.78;1.92;;;;;;;;;;6361691;22;20097;-82
2024/01/18 04:41:37;;;;;;;2.70;1.77;;;;;;;;;;6382355;22;20022;-82
2024/01/18 04:44:03;;;;;;;3.25;2.20;;;;;;;;;;6382796;22;20002;-83
2024/01/18 04:46:30;;;;;;;3.22;1.90;;;;;;;;;;6381850;22;20008;-88
2024/01/18 04:48:56;;;;;;;2.22;1.50;;;;;;;;;;6381877;22;20025;-86
2024/01/18 04:51:22;;;;;;;3.05;1.73;;;;;;;;;;6354429;22;19995;-83
2024/01/18 04:53:50;;;;;;;2.67;2.00;;;;;;;;;;6380470;22;19998;-81
2024/01/18 04:56:16;;;;;;;3.28;2.25;;;;;;;;;;6383224;22;19994;-85
2024/01/18 04:58:42;;;;;;;2.58;1.75;;;;;;;;;;6356395;22;20002;-83
2024/01/18 05:01:08;;;;;;;3.22;2.10;;;;;;;;;;6385617;22;20552;-84
2024/01/18 05:03:34;;;;;;;2.80;1.95;;;;;;;;;;6382109;22;20011;-82
2024/01/18 05:06:00;;;;;;;3.67;2.33;;;;;;;;;;6355774;22;19998;-85
2024/01/18 05:08:26;;;;;;;2.85;2.20;;;;;;;;;;6383423;22;20002;-83
2024/01/18 05:10:53;;;;;;;3.53;1.80;;;;;;;;;;6356016;22;19998;-85
2024/01/18 05:13:21;;;;;;;2.42;1.48;;;3.20;99.90;;;;;;6356012;22;20033;-82
2024/01/18 05:15:47;;;;;;;2.85;1.80;;;;;;;;;;6382258;22;20025;-83
2024/01/18 05:18:14;;;;;;;2.10;1.50;;;;;;;;;;6383316;22;20032;-82
2024/01/18 05:20:40;;;;;;;3.13;1.95;;;;;;;;;;6384088;22;20070;-81
2024/01/18 05:23:06;;;;;;;3.10;1.55;;;;;;;;;;6382878;22;20010;-85
2024/01/18 05:25:32;;;;;;;3.42;1.98;;;;;;;;;;6355876;22;20014;-85
2024/01/18 05:28:00;;;;;;;1.73;1.40;;;;;;;;;;6383850;22;20005;-82
2024/01/18 05:30:26;;;;;;;2.65;1.60;;;;;;;;;;6384077;22;19995;-85
2024/01/18 05:32:52;;;;;;;2.10;1.30;;;;;;;;;;6360484;22;20018;-90
2024/01/18 05:35:18;;;;;;;1.95;1.48;;;3.30;99.90;;;;;;6367410;22;20478;-90
2024/01/18 05:37:44;;;;;;;2.25;1.40;;;;;;;;;;6393689;22;20256;-88
2024/01/18 05:40:10;;;;;;;2.10;1.42;;;;;;;;;;6366861;22;20011;-90
2024/01/18 05:42:36;;;;;;;4.47;1.80;;;;;;;;;;6392534;22;20017;-92
2024/01/18 05:45:03;;;;;;;2.53;1.60;;;;;;;;;;6395554;22;20005;-90
2024/01/18 05:47:29;;;;;;;2.22;1.58;;;;;;;;;;6338205;22;20010;-88
2024/01/18 05:49:55;;;;;;;2.67;1.55;;;;;;;;;;6358925;22;20003;-84
2024/01/18 05:52:22;;;;;;;2.83;1.77;;;;;;;;;;6385142;22;20014;-88
2024/01/18 05:54:48;;;;;;;2.97;1.85;;;;;;;;;;6357724;22;20025;-83
2024/01/18 05:57:18;;;;;;;2.63;1.70;;;;;;;;;;6359328;22;20057;-87
2024/01/18 05:59:44;;;;;;;3.25;2.00;;;;;;;;;;6357139;22;20006;-84
2024/01/18 06:02:10;;;;;;;2.95;1.95;;;;;;;;;;6356796;22;20007;-82
2024/01/18 06:04:36;;;;;;;3.05;1.88;;;;;;;;;;6384637;22;20016;-86
2024/01/18 06:07:03;;;;;;;3.38;1.75;;;;;;;;;;6387693;22;20018;-85
2024/01/18 06:09:33;;;;;;;4.22;1.90;;;;;;;;;;6391096;22;20006;-82
2024/01/18 06:12:20;;;;;;;2.78;1.77;;;;;;;;;;6363359;22;20023;-84
2024/01/18 06:15:32;;;;;;;3.15;2.10;;;3.10;99.90;;;;;;6345223;22;19999;-83
2024/01/18 06:18:27;;;;;;;3.20;1.92;;;;;;;;;;6361569;22;19999;-82
2024/01/18 06:21:15;;;;;;;2.70;1.90;;;;;;;;;;6391327;22;19999;-84
2024/01/18 06:33:28;;;;;;;3.42;1.95;;;2.90;99.90;;;;;;6324959;22;20061;-82
2024/01/18 06:36:22;;;;;;;3.10;1.90;;;;;;;;;;6368171;22;20021;-82
2024/01/18 06:39:28;;;;;;;2.63;1.70;;;;;;;;;;6362850;22;20058;-83
2024/01/18 06:45:54;;;;;;;3.00;1.90;;;;;;;;;;6391622;22;20005;-86
2024/01/18 06:49:18;;;;;;;3.15;2.30;;;2.90;99.90;;;;;;6394411;22;20006;-84
2024/01/18 06:51:45;;;;;;;5.07;2.50;;;;;;;;;;6358915;22;20062;-86
2024/01/18 06:54:17;;;;;;;10.40;3.92;;;;;;;;;;6360843;22;20002;-83
2024/01/18 06:56:58;;;;;;;4.05;2.30;;;;;;;;;;6384315;22;20063;-83
2024/01/18 06:59:25;;;;;;;3.17;2.45;;;;;;;;;;6385736;22;20054;-85
2024/01/18 07:01:53;;;;;;;4.60;2.30;;;;;;;;;;6385290;22;19998;-86
2024/01/18 07:04:20;;;;;;;3.25;2.28;;;;;;;;;;6355205;22;20077;-86
2024/01/18 07:06:50;;;;;;;4.43;2.83;;;;;;;;;;6328441;22;20010;-83
2024/01/18 07:09:40;;;;;;;5.53;3.10;;;2.80;99.90;;;;;;6357443;22;20018;-84
2024/01/18 07:12:06;;;;;;;5.00;3.08;;;;;;;;;;6348311;22;20337;-87
2024/01/18 07:14:32;;;;;;;4.80;3.13;;;;;;;;;;6382423;22;20002;-84
2024/01/18 07:16:58;;;;;;;4.80;2.97;;;;;;;;;;6382827;22;19998;-83
2024/01/18 07:19:24;;;;;;;4.95;3.10;;;;;;;;;;6383133;22;20002;-87
2024/01/18 07:21:50;;;;;;;5.90;3.55;;;;;;;;;;6383838;22;20054;-84
2024/01/18 07:24:16;;;;;;;4.65;2.90;;;;;;;;;;6384420;22;20128;-83
2024/01/18 07:26:42;;;;;;;5.25;3.30;;;;;;;;;;6385308;22;20010;-85
2024/01/18 07:29:09;;;;;;;5.07;2.90;;;;;;;;;;6333001;22;20014;-84
2024/01/18 07:31:35;;;;;;;4.13;2.85;;;;;;;;;;6332651;22;20508;-89
2024/01/18 07:34:01;;;;;;;4.57;2.80;;;;;;;;;;6356984;22;20006;-82
2024/01/18 07:36:28;;;;;;;4.63;3.08;;;;;;;;;;6385410;22;20009;-84
2024/01/18 07:38:54;;;;;;;4.32;2.90;;;;;;;;;;6354013;22;19995;-84
2024/01/18 07:41:21;;;;;;;5.60;3.22;;;;;;;;;;6354275;22;20026;-81
2024/01/18 07:43:47;;;;;;;5.68;3.63;;;;;;;;;;6381185;22;20002;-85
2024/01/18 07:46:13;;;;;;;5.05;3.30;;;;;;;;;;6352870;22;20013;-82
2024/01/18 07:48:39;;;;;;;4.22;3.03;;;;;;;;;;6381749;22;20376;-85
2024/01/18 07:51:05;;;;;;;4.68;3.00;;;;;;;;;;6380649;22;20006;-82
2024/01/18 07:53:31;;;;;;;4.20;2.75;;;;;;;;;;6354318;22;20028;-82
2024/01/18 07:55:57;;;;;;;4.03;2.80;;;;;;;;;;6353879;22;20006;-84
2024/01/18 07:58:23;;;;;;;5.90;3.55;;;;;;;;;;6328925;22;20007;-86
2024/01/18 08:00:50;;;;;;;4.75;3.30;;;;;;;;;;6356283;22;20054;-85
2024/01/18 08:03:16;;;;;;;5.47;3.22;;;;;;;;;;6386908;22;20009;-84
2024/01/18 08:05:42;;;;;;;4.43;2.88;;;;;;;;;;6356738;22;20010;-85
2024/01/18 08:08:08;;;;;;;4.57;2.80;;;;;;;;;;6378483;22;20446;-84
2024/01/18 08:10:34;;;;;;;3.58;2.38;;;;;;;;;;6351346;22;20041;-89
2024/01/18 08:13:01;;;;;;;5.72;2.95;;;;;;;;;;6378755;22;20021;-83
2024/01/18 08:15:28;;;;;;;3.92;2.38;;;;;;;;;;6379231;22;19995;-84
2024/01/18 08:17:54;;;;;;;4.70;2.70;;;;;;;;;;6379104;22;20002;-86
2024/01/18 08:20:20;;;;;;;4.18;2.80;;;;;;;;;;6378116;22;20591;-86
2024/01/18 08:22:47;;;;;;;4.00;2.55;;;;;;;;;;6351519;22;20085;-84
2024/01/18 08:25:16;;;;;;;5.75;3.15;;;;;;;;;;6352322;22;19998;-84
2024/01/18 08:27:42;;;;;;;5.32;3.10;;;;;;;;;;6353380;22;20003;-82
2024/01/18 08:30:08;;;;;;;6.18;3.40;;;;;;;;;;6353286;22;20098;-82
2024/01/18 08:32:34;;;;;;;5.47;3.60;;;;;;;;;;6352847;22;20006;-83
2024/01/18 08:35:07;;;;;;;6.45;4.00;;;1.90;99.90;;;;;;6354505;22;20063;-82
2024/01/18 08:37:35;;;;;;;6.88;4.93;;;;;;;;;;6359956;22;20013;-82
2024/01/18 08:40:01;;;;;;;7.63;4.50;;;;;;;;;;6388746;22;20002;-83
2024/01/18 08:42:28;;;;;;;6.20;3.88;;;;;;;;;;6385675;22;19995;-82
2024/01/18 08:44:57;;;;;;;7.50;4.78;;;;;;;;;;6357260;22;20065;-83
2024/01/18 08:47:23;;;;;;;8.00;4.88;;;;;;;;;;6384470;22;20017;-84
2024/01/18 08:49:50;;;;;;;7.22;4.70;;;;;;;;;;6387037;22;20007;-83
2024/01/18 08:52:16;;;;;;;8.65;5.25;;;;;;;;;;6385959;22;20009;-82
2024/01/18 08:54:43;;;;;;;7.90;4.78;;;;;;;;;;6388750;22;19994;-81
2024/01/18 08:57:09;;;;;;;7.15;4.72;;;;;;;;;;6390902;22;19999;-86
2024/01/18 08:59:35;;;;;;;8.20;4.75;;;;;;;;;;6363541;22;20099;-91
2024/01/18 09:02:01;;;;;;;7.80;4.63;;;;;;;;;;6342018;22;19995;-86
2024/01/18 09:04:27;;;;;;;9.20;5.30;;;;;;;;;;6394599;22;20014;-91
2024/01/18 09:06:55;;;;;;;8.68;5.07;;;;;;;;;;6395498;22;20026;-90
2024/01/18 09:09:21;;;;;;;8.88;4.95;;;;;;;;;;6395444;22;20021;-87
2024/01/18 09:11:47;;;;;;;9.68;5.43;;;;;;;;;;6368457;22;20018;-87
2024/01/18 09:14:13;;;;;;;9.15;5.03;;;;;;;;;;6395557;22;20007;-87
2024/01/18 09:16:39;;;;;;;9.07;5.40;;;;;;;;;;6389763;22;20394;-84
2024/01/18 09:19:06;;;;;;;9.63;5.70;;;;;;;;;;6357475;22;19998;-83
2024/01/18 09:21:32;;;;;;;9.65;5.63;;;;;;;;;;6384534;22;20054;-85
2024/01/18 09:23:58;;;;;;;9.55;5.85;;;;;;;;;;6384281;22;20487;-85
2024/01/18 09:26:24;;;;;;;10.43;5.88;;;;;;;;;;6385977;22;20050;-83
2024/01/18 09:28:50;;;;;;;9.88;5.78;;;;;;;;;;6360317;22;20017;-83
2024/01/18 09:31:16;;;;;;;11.63;5.72;;;;;;;;;;6388050;22;19991;-84
2024/01/18 09:33:42;;;;;;;12.13;6.20;;;;;;;;;;6388943;22;20002;-89
2024/01/18 09:36:08;;;;;;;12.40;6.70;;;;;;;;;;6390809;22;20009;-84
2024/01/18 09:38:34;;;;;;;10.40;5.43;;;;;;;;;;6365476;22;19998;-88
2024/01/18 09:41:06;;;;;;;8.80;6.00;;;1.90;99.90;;;;;;6366257;22;20034;-89
2024/01/18 09:43:36;;;;;;;9.35;5.38;;;1.80;99.90;;;;;;6393157;22;19983;-86
2024/01/18 09:46:06;;;;;;;10.48;6.03;;;1.90;99.90;;;;;;6393396;22;20003;-89
2024/01/18 09:48:35;;;;;;;11.00;6.03;;;2.00;99.90;;;;;;6365572;22;20025;-89
2024/01/18 09:51:09;;;;;;;10.82;5.05;;;1.90;99.90;;;;;;6365030;22;20025;-82
2024/01/18 09:53:36;;;;;;;10.05;5.88;;;;;;;;;;6361913;22;20014;-86
2024/01/18 09:56:22;;;;;;;9.57;5.65;;;2.00;99.90;;;;;;6390888;22;20014;-81
2024/01/18 09:58:58;;;;;;;9.23;5.22;;;2.00;99.90;;;;;;6368986;22;20177;-82
2024/01/18 10:01:25;;;;;;;9.93;5.85;;;;;;;;;;6389973;22;20494;-87
2024/01/18 10:03:56;;;;;;;10.88;6.40;;;;;;;;;;6390026;22;20003;-82
2024/01/18 10:06:22;;;;;;;10.00;5.72;;;;;;;;;;6362336;22;20002;-82
2024/01/18 10:08:55;;;;;;;10.48;5.30;;;2.20;99.90;;;;;;6359788;22;20012;-81
2024/01/18 10:11:24;;;;;;;11.30;5.63;;;;;;;;;;6359731;22;20460;-81
2024/01/18 10:13:54;;;;;;;11.13;5.43;;;2.10;99.90;;;;;;6358245;22;20038;-83
2024/01/18 10:16:46;;;;;;;9.30;5.28;;;2.10;99.90;;;;;;6385647;22;20551;-82
2024/01/18 10:19:15;;;;;;;12.00;6.03;;;;;;;;;;6386295;22;20013;-82
2024/01/18 10:21:41;;;;;;;7.90;5.10;;;2.10;99.90;;;;;;6356682;22;20061;-81
2024/01/18 10:24:14;;;;;;;8.27;5.45;;;2.10;99.90;;;;;;6383905;22;20033;-81
2024/01/18 10:26:42;;;;;;;13.00;6.40;;;2.00;99.90;;;;;;6356651;22;20006;-82
2024/01/18 10:29:09;;;;;;;11.65;6.15;;;1.90;99.90;;;;;;6357133;22;20037;-82
2024/01/18 10:31:39;;;;;;;9.68;6.05;;;;;;;;;;6360765;22;20005;-85
2024/01/18 10:34:06;;;;;;;9.63;5.53;;;;;;;;;;6366430;22;20002;-82
2024/01/18 10:36:36;;;;;;;9.77;5.25;;;;;;;;;;6391048;22;20002;-82
2024/01/18 10:39:20;;;;;;;12.82;6.40;;;;;;;;;;6389792;22;19991;-82
2024/01/18 10:42:07;;;;;;;10.05;6.22;;;2.10;99.90;;;;;;6361724;22;20456;-81
2024/01/18 10:44:44;;;;;;;10.52;6.18;;;2.00;99.90;;;;;;6365020;22;20012;-82
2024/01/18 10:47:10;;;;;;;11.13;6.07;;;;;;;;;;6319570;22;19986;-83
2024/01/18 10:49:42;;;;;;;12.77;6.53;;;2.10;99.90;;;;;;6372271;22;19983;-87
2024/01/18 10:52:28;;;;;;;11.20;5.53;;;2.20;99.90;;;;;;6371394;22;20002;-86
2024/01/18 10:55:24;;;;;;;10.52;5.55;;;2.30;99.90;;;;;;6372285;22;20018;-83
2024/01/18 10:58:01;;;;;;;9.43;5.15;;;2.40;99.90;;;;;;6398051;22;19987;-88
2024/01/18 11:00:33;;;;;;;10.90;5.95;;;;;;;;;;6397481;22;20040;-84
2024/01/18 11:03:14;;;;;;;9.93;5.45;;;2.40;99.90;;;;;;6339758;22;20006;-83
2024/01/18 11:09:23;;;;;;;10.25;5.38;;;2.50;99.90;;;;;;6374531;22;20367;-83
2024/01/18 11:12:33;;;;;;;9.15;4.82;;;2.50;99.90;;;;;;6356138;22;20013;-82
2024/01/18 11:15:30;;;;;;;8.90;5.03;;;2.50;99.90;;;;;;6354685;22;20005;-82
2024/01/18 11:22:26;;;;;;;11.20;5.63;;;2.60;99.90;;;;;;6355228;22;20024;-83
2024/01/18 11:25:45;;;;;;;9.70;5.38;;;2.60;99.90;;;;;;6357233;22;20003;-82
2024/01/18 11:29:14;;;;;;;11.68;5.60;;;2.60;99.90;;;;;;6295740;22;20055;-83
2024/01/18 11:37:14;;;;;;;11.20;5.18;;;2.60;99.90;;;;;;6260289;22;20023;-84
